In Rescue
 
Open Full Screen Window  High Contrast Mode
Wind Gusting 00 knots
07
November 14, 2019 2:16 PM EST
Weather Information
Wind Direction
  250 °
Wind Speed
  07 kt (8 mph)
Wind Gust
  00 kt (0 mph)
Altimeter
30.12 in
Visibility
10 SM
Temperature
-01° C
30° F
Dewpoint
-04° C
25° F
Humidity
80%
1hr Rain Fall
00.00 in.
24hr Rain Fall
00.00 in.
Sky Condition
Overcast @ 2,300 ft
MVFR

METAR KRQB 141916Z AUTO 25007KT 10SM OVC023 M01/M04 A3012 RMK AO2 T10121045

FAA Disclaimer: The data displayed is for advisory purposes only and is not to be used for flight planning or operations.